Doris, Washington
Current Conditions -  °F | °C
As of 5:56 AM on Wednesday 26 Nov 2014 (Local Time) from K1YT Reporting Station
Moderate Fog Moderate Fog  
Wind Chill:   Ceiling: 300
Heat Index:   Visibility: 0.5mi
Dew Point:   Wind: 1mph
Humidity: 97%   Direction: NA
Pressure: 30.16"   Gusts: NA
Location:  46.8679°N, 120.008°W
Report Text: K1YT 261356Z AUTO VRB01KT 1/2SM FG VV003 03/03 A3016 RMK AO2 SLPNO T00340029
Loading
Personal Weather Stations






























Interactive Weather Map New forecast layout! Learn more

10-Day Weather Forecast

Advertisements
Track Severe Weather on mobile